createdAt,value
2019-05-10T06:16:51.392Z,97731.00
2019-05-10T06:19:36.882Z,97736.00
2019-05-10T06:22:14.655Z,97736.00
2019-05-10T06:24:52.363Z,97732.00
2019-05-10T06:27:30.069Z,97729.00
2019-05-10T06:36:32.028Z,97745.00
2019-05-10T06:39:19.524Z,97740.00
2019-05-10T06:41:55.992Z,97733.00
2019-05-10T06:44:31.131Z,97750.00
2019-05-10T06:47:28.187Z,97746.00
2019-05-10T06:50:08.644Z,97750.00
2019-05-10T06:52:51.948Z,97759.00
2019-05-10T06:55:30.681Z,97759.00
2019-05-10T06:58:09.222Z,97761.00
2019-05-10T07:00:45.609Z,97757.00
2019-05-10T07:03:17.116Z,97771.00
2019-05-10T07:05:55.318Z,97768.00
2019-05-10T07:08:44.396Z,97772.00
2019-05-10T07:11:14.558Z,97781.00
2019-05-10T07:13:59.302Z,97780.00
2019-05-10T07:16:32.113Z,97775.00
2019-05-10T07:19:09.644Z,97788.00
2019-05-10T07:21:50.791Z,97773.00
2019-05-10T07:24:36.464Z,97793.00
2019-05-10T07:27:16.949Z,97813.00
2019-05-10T07:29:53.463Z,97802.00
2019-05-10T07:32:33.311Z,97799.00
2019-05-10T07:35:13.951Z,97804.00
2019-05-10T07:37:53.106Z,97798.00
2019-05-10T07:40:36.486Z,97798.00
2019-05-10T07:43:09.268Z,97806.00
2019-05-10T07:45:46.204Z,97807.00
2019-05-10T07:48:23.259Z,97812.00
2019-05-10T07:51:02.290Z,97805.00
2019-05-10T07:53:57.022Z,97814.00
2019-05-10T07:56:30.439Z,97815.00
2019-05-10T07:59:27.957Z,97802.00
2019-05-10T08:01:59.535Z,97819.00
2019-05-10T08:07:14.342Z,97809.00
2019-05-10T08:09:48.789Z,97814.00
2019-05-10T08:12:21.073Z,97807.00
2019-05-10T08:15:24.732Z,97812.00
2019-05-10T08:17:59.500Z,97822.00
2019-05-10T08:20:50.347Z,97836.00
2019-05-10T08:23:23.746Z,97827.00
2019-05-10T08:25:58.281Z,97858.00
2019-05-10T08:28:37.847Z,97850.00
2019-05-10T08:31:14.551Z,97848.00
2019-05-10T08:33:58.731Z,97853.00
2019-05-10T08:36:45.864Z,97847.00
2019-05-10T08:39:22.360Z,97842.00
2019-05-10T08:42:03.898Z,97851.00
2019-05-10T08:44:32.700Z,97847.00
2019-05-10T08:47:07.750Z,97849.00
2019-05-10T08:50:06.042Z,97854.00
2019-05-10T08:52:33.967Z,97857.00
2019-05-10T08:55:12.636Z,97869.00
2019-05-10T08:57:53.611Z,97861.00
2019-05-10T09:00:41.501Z,97848.00
2019-05-10T09:03:18.559Z,97864.00
2019-05-10T09:05:52.609Z,97860.00
2019-05-10T09:08:34.703Z,97855.00
2019-05-10T09:11:12.337Z,97857.00
2019-05-10T09:13:46.161Z,97864.00
2019-05-10T09:16:23.915Z,97869.00
2019-05-10T09:19:04.622Z,97868.00
2019-05-10T09:21:40.981Z,97880.00
2019-05-10T09:26:52.826Z,97873.00
2019-05-10T09:29:33.023Z,97868.00
2019-05-10T09:32:06.187Z,97885.00
2019-05-10T09:34:42.803Z,97898.00
2019-05-10T09:37:18.003Z,97894.00
2019-05-10T09:39:55.476Z,97883.00
2019-05-10T09:42:37.405Z,97893.00
2019-05-10T09:45:13.065Z,97899.00
2019-05-10T09:47:47.359Z,97904.00
2019-05-10T09:50:30.365Z,97897.00
2019-05-10T09:53:07.349Z,97907.00
2019-05-10T09:55:55.213Z,97900.00
2019-05-10T09:58:34.139Z,97916.00
2019-05-10T10:01:21.753Z,97916.00
2019-05-10T10:04:02.124Z,97916.00
2019-05-10T10:06:48.267Z,97911.00
2019-05-10T10:12:28.875Z,97930.00
2019-05-10T10:15:10.692Z,97928.00
2019-05-10T10:17:54.653Z,97921.00
2019-05-10T10:20:36.111Z,97916.00
2019-05-10T10:23:13.264Z,97920.00
2019-05-10T10:25:48.399Z,97931.00
2019-05-10T10:28:31.213Z,97931.00
2019-05-10T10:31:05.455Z,97917.00
2019-05-10T10:33:38.823Z,97916.00
2019-05-10T10:36:11.419Z,97913.00
2019-05-10T10:38:45.713Z,97912.00
2019-05-10T10:43:58.123Z,97928.00
2019-05-10T10:46:34.673Z,97921.00
2019-05-10T10:49:32.380Z,97913.00
2019-05-10T10:52:11.256Z,97912.00
2019-05-10T10:54:47.978Z,97922.00
2019-05-10T10:57:22.440Z,97925.00
2019-05-10T10:59:57.488Z,97928.00
2019-05-10T11:02:46.948Z,97933.00
2019-05-10T11:05:24.061Z,97920.00
2019-05-10T11:08:01.212Z,97910.00
2019-05-10T11:10:40.486Z,97919.00
2019-05-10T11:13:44.896Z,97915.00
2019-05-10T11:16:15.537Z,97933.00
2019-05-10T11:18:51.731Z,97927.00
2019-05-10T11:21:41.534Z,97936.00
2019-05-10T11:27:23.097Z,97921.00
2019-05-10T11:30:00.959Z,97901.00
2019-05-10T11:32:57.515Z,97910.00
2019-05-10T11:35:34.226Z,97909.00
2019-05-10T11:38:16.089Z,97904.00
2019-05-10T11:40:49.404Z,97894.00
2019-05-10T11:43:37.025Z,97906.00
2019-05-10T11:46:15.469Z,97902.00
2019-05-10T11:49:01.781Z,97904.00
2019-05-10T11:51:47.961Z,97905.00
2019-05-10T11:54:26.118Z,97902.00
2019-05-10T11:59:05.080Z,97905.00
2019-05-10T11:59:51.327Z,97914.00
2019-05-10T12:05:20.524Z,97907.00
2019-05-10T12:08:02.263Z,97889.00
2019-05-10T12:10:52.777Z,97891.00
2019-05-10T12:13:25.911Z,97897.00
2019-05-10T12:16:16.159Z,97899.00
2019-05-10T12:19:06.839Z,97900.00
2019-05-10T12:21:37.628Z,97887.00
2019-05-10T12:26:15.807Z,97903.00
2019-05-10T12:26:27.297Z,97904.00
2019-05-10T12:27:24.861Z,97906.00
2019-05-10T12:29:41.473Z,97908.00
2019-05-10T12:32:14.307Z,97909.00
2019-05-10T12:34:58.420Z,97900.00
2019-05-10T12:37:39.536Z,97901.00
2019-05-10T12:40:28.270Z,97916.00
2019-05-10T12:43:07.010Z,97912.00
2019-05-10T12:45:46.521Z,97900.00
2019-05-10T12:48:36.027Z,97903.00
2019-05-10T12:51:25.152Z,97909.00
2019-05-10T12:54:07.127Z,97918.00
2019-05-10T12:56:50.829Z,97923.00
2019-05-10T12:59:36.629Z,97933.00
2019-05-10T13:02:15.978Z,97919.00
2019-05-10T13:06:19.606Z,97921.00
2019-05-10T13:09:02.114Z,97920.00
2019-05-10T13:11:43.154Z,97927.00
2019-05-10T13:14:28.809Z,97931.00
2019-05-10T13:17:03.880Z,97930.00
2019-05-10T13:19:44.505Z,97925.00
2019-05-10T13:22:22.996Z,97905.00
2019-05-10T13:25:03.220Z,97920.00
2019-05-10T13:27:56.064Z,97904.00
2019-05-10T13:30:34.325Z,97902.00
2019-05-10T13:36:30.567Z,97915.00
2019-05-10T13:39:25.259Z,97922.00
2019-05-10T13:42:05.140Z,97901.00
2019-05-10T13:44:49.789Z,97930.00
2019-05-10T13:47:31.784Z,97917.00
2019-05-10T13:52:53.525Z,97954.00
2019-05-10T13:58:35.295Z,97922.00
2019-05-10T14:01:19.732Z,97938.00
2019-05-10T14:04:03.518Z,97933.00
2019-05-10T14:06:45.550Z,97943.00
2019-05-10T14:15:14.819Z,97954.00
2019-05-10T14:17:58.743Z,97954.00
2019-05-10T14:20:39.503Z,97973.00
2019-05-10T14:23:35.219Z,97964.00
2019-05-10T14:26:29.828Z,97979.00
2019-05-10T14:29:33.380Z,97990.00
2019-05-10T14:32:17.546Z,97971.00
2019-05-10T14:34:57.862Z,97969.00
2019-05-10T14:37:39.286Z,97977.00
2019-05-10T14:40:27.812Z,97997.00
2019-05-10T14:46:13.539Z,97994.00
2019-05-10T14:49:09.805Z,97975.00
2019-05-10T14:51:58.399Z,97981.00
2019-05-10T14:54:23.836Z,97992.00
2019-05-10T14:57:04.255Z,97994.00
2019-05-10T15:02:44.484Z,98001.00
2019-05-10T15:05:26.572Z,98007.00
2019-05-10T15:08:15.907Z,98001.00
2019-05-10T15:11:01.832Z,98015.00
2019-05-10T15:13:49.711Z,97998.00
2019-05-10T15:19:36.779Z,97989.00
2019-05-10T15:22:23.103Z,97980.00
2019-05-10T15:25:06.210Z,97984.00
2019-05-10T15:27:45.694Z,97969.00
2019-05-10T15:30:53.802Z,97949.00
2019-05-10T15:33:34.732Z,97976.00
2019-05-10T15:39:05.350Z,97987.00
2019-05-10T15:41:59.564Z,97986.00
2019-05-10T15:44:49.268Z,97983.00
2019-05-10T15:47:31.908Z,97980.00
2019-05-10T15:53:28.038Z,98002.00
2019-05-10T16:02:25.914Z,98021.00
2019-05-10T16:05:22.237Z,97995.00
2019-05-10T16:07:51.546Z,97982.00
2019-05-10T16:10:43.332Z,98008.00
2019-05-10T16:16:19.554Z,98011.00
2019-05-10T16:19:01.799Z,98009.00
2019-05-10T16:21:46.696Z,98007.00
2019-05-10T16:24:28.231Z,98011.00
2019-05-10T16:27:02.900Z,98016.00
2019-05-10T16:29:43.539Z,97991.00
2019-05-10T16:32:29.202Z,97977.00
2019-05-10T16:35:12.930Z,98005.00
2019-05-10T16:37:56.669Z,98006.00
2019-05-10T16:40:56.822Z,98000.00
2019-05-10T16:43:29.067Z,97988.00
2019-05-10T16:46:13.103Z,98006.00
2019-05-10T16:48:50.255Z,98017.00
2019-05-10T16:51:42.405Z,98022.00
2019-05-10T16:54:25.209Z,98029.00
2019-05-10T16:57:22.775Z,98047.00
2019-05-10T17:00:08.302Z,98064.00
2019-05-10T17:02:43.789Z,98066.00
2019-05-10T17:05:20.933Z,98058.00
2019-05-10T17:08:03.773Z,98061.00
2019-05-10T17:13:14.492Z,98069.00
2019-05-10T17:15:58.067Z,98073.00
2019-05-10T17:18:34.781Z,98062.00
2019-05-10T17:21:09.628Z,98065.00
2019-05-10T17:26:32.487Z,98071.00
2019-05-10T17:29:18.152Z,98072.00
2019-05-10T17:31:56.468Z,98061.00
2019-05-10T17:34:36.761Z,98038.00
2019-05-10T17:37:11.325Z,98009.00
2019-05-10T17:39:45.331Z,98012.00
2019-05-10T17:42:24.409Z,98032.00
2019-05-10T17:45:01.826Z,98043.00
2019-05-10T17:47:36.424Z,98051.00
2019-05-10T17:50:14.161Z,98060.00
2019-05-10T17:52:49.322Z,98054.00
2019-05-10T17:55:25.406Z,98052.00
2019-05-10T17:57:58.700Z,98054.00
2019-05-10T18:00:34.970Z,98054.00
2019-05-10T18:03:13.217Z,98033.00
2019-05-10T18:05:51.213Z,98048.00
2019-05-10T18:08:22.047Z,98045.00
2019-05-10T18:10:57.359Z,98054.00
2019-05-10T18:13:42.630Z,98057.00
2019-05-10T18:16:17.074Z,98062.00
2019-05-10T18:18:53.505Z,98073.00
2019-05-10T18:21:25.513Z,98082.00
2019-05-10T18:23:59.824Z,98090.00
2019-05-10T18:26:34.261Z,98101.00
2019-05-10T18:29:06.501Z,98106.00
2019-05-10T18:31:40.303Z,98118.00
2019-05-10T18:34:12.372Z,98116.00
2019-05-10T18:36:52.402Z,98113.00
2019-05-10T18:39:21.796Z,98123.00
2019-05-10T18:41:56.993Z,98118.00
2019-05-10T18:44:29.747Z,98142.00
2019-05-10T18:47:06.821Z,98153.00
2019-05-10T18:49:40.816Z,98163.00
2019-05-10T18:52:21.647Z,98164.00
2019-05-10T18:55:00.504Z,98172.00
2019-05-10T18:57:39.561Z,98175.00
2019-05-10T19:00:23.235Z,98186.00
2019-05-10T19:03:05.134Z,98191.00
2019-05-10T19:05:48.961Z,98206.00
2019-05-10T19:08:34.247Z,98204.00
2019-05-10T19:11:14.817Z,98209.00
2019-05-10T19:13:54.638Z,98204.00
2019-05-10T19:16:34.361Z,98212.00
2019-05-10T19:19:11.103Z,98207.00
2019-05-10T19:21:53.204Z,98213.00
2019-05-10T19:24:30.308Z,98228.00
2019-05-10T19:27:07.282Z,98231.00
2019-05-10T19:33:17.720Z,98222.00
2019-05-10T19:35:57.814Z,98222.00
2019-05-10T19:38:33.261Z,98224.00
2019-05-10T19:41:12.207Z,98226.00
2019-05-10T19:44:10.789Z,98227.00
2019-05-10T19:46:52.017Z,98234.00
2019-05-10T19:50:03.204Z,98246.00
2019-05-10T19:52:39.817Z,98247.00
2019-05-10T19:56:54.928Z,98262.00
2019-05-10T19:59:48.573Z,98257.00
2019-05-10T20:02:27.902Z,98257.00
2019-05-10T20:05:05.143Z,98252.00
2019-05-10T20:07:59.817Z,98256.00
2019-05-10T20:10:41.955Z,98258.00
2019-05-10T20:13:21.327Z,98262.00
2019-05-10T20:16:01.082Z,98267.00
2019-05-10T20:18:36.679Z,98261.00
2019-05-10T20:21:11.095Z,98256.00
2019-05-10T20:26:27.476Z,98240.00
2019-05-10T20:29:03.143Z,98234.00
2019-05-10T20:31:39.228Z,98234.00
2019-05-10T20:34:14.226Z,98238.00
2019-05-10T20:36:49.184Z,98237.00
2019-05-10T20:39:27.414Z,98228.00
2019-05-10T20:42:01.838Z,98236.00
2019-05-10T20:45:12.644Z,98235.00
2019-05-10T20:48:04.421Z,98239.00
2019-05-10T20:50:41.943Z,98248.00
2019-05-10T20:53:31.500Z,98250.00
2019-05-10T20:58:58.052Z,98242.00
2019-05-10T21:01:49.212Z,98256.00
2019-05-10T21:04:24.688Z,98249.00
2019-05-10T21:07:04.927Z,98259.00
2019-05-10T21:09:38.064Z,98253.00
2019-05-10T21:12:12.036Z,98243.00
2019-05-10T21:14:45.796Z,98258.00
2019-05-10T21:17:20.165Z,98258.00
2019-05-10T21:19:52.563Z,98253.00
2019-05-10T21:22:25.501Z,98249.00
2019-05-10T21:24:57.849Z,98245.00
2019-05-10T21:27:31.962Z,98247.00
2019-05-10T21:30:07.933Z,98237.00
2019-05-10T21:32:45.059Z,98225.00
2019-05-10T21:35:18.358Z,98218.00
2019-05-10T21:37:51.601Z,98206.00
2019-05-10T21:40:23.912Z,98212.00
2019-05-10T21:45:40.623Z,98210.00
2019-05-10T21:51:10.174Z,98203.00
2019-05-10T21:53:58.739Z,98200.00
2019-05-10T21:56:37.493Z,98180.00
2019-05-10T21:59:11.277Z,98184.00
2019-05-10T22:01:51.949Z,98169.00
2019-05-10T22:04:37.552Z,98166.00
2019-05-10T22:07:14.040Z,98171.00
2019-05-10T22:10:09.263Z,98170.00
2019-05-10T22:12:54.985Z,98175.00
2019-05-10T22:15:32.958Z,98162.00
2019-05-10T22:21:11.643Z,98156.00
2019-05-10T22:23:43.626Z,98147.00
2019-05-10T22:26:22.861Z,98134.00
2019-05-10T22:29:01.019Z,98128.00
2019-05-10T22:31:35.522Z,98153.00
2019-05-10T22:34:26.861Z,98154.00
2019-05-10T22:37:02.939Z,98153.00
2019-05-10T22:39:36.756Z,98156.00
2019-05-10T22:42:10.628Z,98143.00
2019-05-10T22:44:54.165Z,98133.00
2019-05-10T22:47:26.679Z,98140.00
2019-05-10T22:50:00.962Z,98124.00
2019-05-10T22:52:33.808Z,98122.00
2019-05-10T22:55:07.134Z,98118.00
2019-05-10T22:57:42.446Z,98124.00
2019-05-10T23:00:18.463Z,98128.00
2019-05-10T23:02:52.985Z,98142.00
2019-05-10T23:05:25.747Z,98144.00
2019-05-10T23:07:59.330Z,98127.00
2019-05-10T23:10:56.961Z,98122.00
2019-05-10T23:13:30.307Z,98114.00
2019-05-10T23:16:07.395Z,98118.00
2019-05-10T23:21:46.062Z,98111.00
